Flight Track Log - Related Links

Times and Time Zones

All times are in EDT time to prevent confusion due to time zone crossing. See the RPA3321 flight status page for this flight to view local times or setup timezone preferences in your user account.

Time Position Orientation Groundspeed Altitude Reporting Facility
EDT Latitude Longitude Course Direction KTS MPH feet Rate Location/Type
Fri 05:48:41 AM 42.7653 -73.8061 171° South 148 170 1,500  Level Boston Center
Fri 05:49:36 AM 42.8044 -73.8436 325° Northwest 189 217 3,200 2,215 Climbing Boston Center
Fri 05:50:51 AM 42.8517 -73.9069 315° West 220 253 6,300 2,622 Climbing Boston Center
Fri 05:51:00 AM 42.3927 -74.1176 170° South  Level Estimated
Fri 05:51:51 AM 42.8944 -73.9706 313° West 225 259 9,100  Level Boston Center
Fri 05:52:00 AM 42.3382 -73.9940 121° Southeast  Level FlightAware Approximate
Fri 05:52:51 AM 42.9200 -74.0817 287° West 259 298 11,200  Level Boston Center
Fri 05:53:00 AM 42.2505 -74.0755 169° South  Level Estimated
Fri 05:54:00 AM 42.1628 -74.1567 171° South  Level Estimated
Fri 05:54:03 AM 42.9181 -74.2092 269° West 292 336 13,900  Level Boston Center
Fri 05:55:03 AM 42.8628 -74.2756 221° Southwest 284 327 16,400 2,450 Climbing Boston Center
Fri 05:56:03 AM 42.7811 -74.3014 193° South 293 337 18,800 2,150 Climbing Boston Center
Fri 05:57:03 AM 42.6964 -74.2567 159° South 286 329 20,700 1,650 Climbing Boston Center
Fri 05:58:03 AM 42.6119 -74.1978 153° Southeast 306 352 22,100 1,400 Climbing Boston Center
Fri 05:59:03 AM 42.5294 -74.1389 152° Southeast 317 365 23,500 1,400 Climbing Boston Center
Fri 06:00:03 AM 42.4428 -74.0775 152° Southeast 340 391 24,900 1,400 Climbing Boston Center
Fri 06:01:03 AM 42.3539 -74.0161 153° Southeast 347 399 26,300 1,300 Climbing Boston Center
Fri 06:02:03 AM 42.2653 -73.9522 152° Southeast 352 405 27,500 850 Climbing Boston Center
Fri 06:03:03 AM 42.1764 -73.8883 152° Southeast 357 411 28,000 750 Climbing Boston Center
Fri 06:04:03 AM 42.0853 -73.8500 163° South 362 417 29,000 1,000 Climbing Boston Center
Fri 06:05:03 AM 41.9806 -73.8978 199° South 335 386 30,000 500 Climbing Boston Center
Fri 06:06:03 AM 41.8883 -73.9375 198° South 341 392 30,000  Level Boston Center
Fri 06:07:53 AM 41.7339 -74.0011 197° South 365 420 30,000  Level New York Center
Fri 06:08:51 AM 41.6411 -74.0383 197° South 365 420 30,000  Level New York Center
Fri 06:09:52 AM 41.5419 -74.0831 199° South 354 407 30,000  Level New York Center
Fri 06:10:52 AM 41.4514 -74.1203 197° South 347 399 30,000  Level New York Center
Fri 06:11:53 AM 41.3586 -74.1625 199° South 347 399 30,000  Level New York Center
Fri 06:12:50 AM 41.2681 -74.1994 197° South 347 399 30,000 -150 Level New York Center
Fri 06:13:53 AM 41.1753 -74.2361 197° South 352 405 29,700 -744 Descending New York Center
Fri 06:14:51 AM 41.0844 -74.2781 199° South 352 405 28,500 -857 Descending New York Center
Fri 06:15:52 AM 40.9939 -74.3147 197° South 347 399 28,000 -248 Descending New York Center
Fri 06:16:52 AM 40.9011 -74.3511 197° South 352 405 28,000  Level New York Center
Fri 06:17:51 AM 40.8103 -74.3928 199° South 352 405 28,000  Level New York Center
Fri 06:18:52 AM 40.7408 -74.4794 223° Southwest 339 390 28,000 -454 Level New York Center
Fri 06:19:50 AM 40.6792 -74.5828 232° Southwest 344 396 27,100 -1,059 Descending New York Center
Fri 06:20:51 AM 40.6197 -74.6808 231° Southwest 355 409 25,900 -1,190 Descending New York Center
Fri 06:21:51 AM 40.5603 -74.7756 230° Southwest 355 409 24,700 -942 Descending New York Center
Fri 06:22:52 AM 40.4967 -74.8703 229° Southwest 355 409 24,000 -850 Descending New York Center
Fri 06:23:51 AM 40.4308 -74.9617 227° Southwest 348 400 23,000 -1,050 Descending New York Center
Fri 06:24:52 AM 40.3675 -75.0478 226° Southwest 343 395 21,900 -1,109 Descending New York Center
Fri 06:25:50 AM 40.3081 -75.1339 228° Southwest 332 382 20,800 -950 Descending New York Center
Fri 06:26:52 AM 40.2464 -75.2169 226° Southwest 332 382 20,000 -393 Descending New York Center
Fri 06:27:52 AM 40.1889 -75.3031 229° Southwest 332 382 20,000  Level New York Center
Fri 06:28:50 AM 40.1314 -75.3944 231° Southwest 332 382 20,000  Level New York Center
Fri 06:29:51 AM 40.0803 -75.4722 229° Southwest 327 376 20,000  Level New York Center
Fri 06:30:52 AM 40.0225 -75.5633 230° Southwest 321 369 20,000  Level New York Center
Fri 06:31:53 AM 39.9647 -75.6514 229° Southwest 321 369 20,000  Level New York Center
Fri 06:32:53 AM 39.9086 -75.7422 231° Southwest 321 369 20,000  Level New York Center
Fri 06:33:53 AM 39.8647 -75.8419 240° Southwest 326 375 20,000  Level New York Center
Fri 06:34:50 AM 39.8106 -75.9408 235° Southwest 331 381 20,000  Level New York Center
Fri 06:35:52 AM 39.7506 -76.0228 226° Southwest 331 381 20,000 -836 Level New York Center
Fri 06:36:52 AM 39.6844 -76.1042 223° Southwest 331 381 18,300 -1,780 Descending New York Center
Fri 06:37:50 AM 39.6197 -76.1936 227° Southwest 326 375 16,500 -1,714 Descending New York Center
Fri 06:38:37 AM 39.5667 -76.2500 219° Southwest 304 350 15,300 -1,516 Descending Potomac TRACON
Fri 06:39:25 AM 39.5333 -76.3167 237° Southwest 296 341 14,100 -1,588 Descending Potomac TRACON
Fri 06:40:19 AM 39.5000 -76.4000 243° Southwest 291 335 12,600 -1,105 Descending Potomac TRACON
Fri 06:41:19 AM 39.4500 -76.5000 237° Southwest 288 331 12,000 -316 Descending Potomac TRACON
Fri 06:42:13 AM 39.4333 -76.5667 252° West 280 322 12,000  Level Potomac TRACON
Fri 06:43:13 AM 39.3833 -76.6500 232° Southwest 268 308 12,000 -400 Level Potomac TRACON
Fri 06:44:13 AM 39.3167 -76.6667 191° South 284 327 11,200 -900 Descending Potomac TRACON
Fri 06:45:13 AM 39.2333 -76.6667 180° South 281 323 10,200 -595 Descending Potomac TRACON
Fri 06:46:14 AM 39.1667 -76.6667 180° South 276 318 10,000 -104 Descending Potomac TRACON
Fri 06:47:08 AM 39.1167 -76.7333 226° Southwest 266 306 10,000  Level Potomac TRACON
Fri 06:48:08 AM 39.0500 -76.8000 218° Southwest 268 308 10,000 -526 Level Potomac TRACON
Fri 06:49:02 AM 39.0000 -76.8500 218° Southwest 262 302 9,000 -1,316 Descending Potomac TRACON
Fri 06:50:02 AM 38.9500 -76.9167 226° Southwest 267 307 7,500 -1,513 Descending Potomac TRACON
Fri 06:50:57 AM 38.8833 -76.9500 201° Southwest 277 319 6,100 -1,461 Descending Potomac TRACON
Fri 06:51:57 AM 38.8167 -76.9500 180° South 283 326 4,700 -1,300 Descending Potomac TRACON
Fri 06:52:57 AM 38.7500 -76.9333 169° South 251 289 3,500 -1,250 Descending Potomac TRACON
Fri 06:53:57 AM 38.7167 -76.9833 229° Southwest 192 221 2,200 -950 Descending Potomac TRACON
Fri 06:54:57 AM 38.7333 -77.0333 293° West 180 207 1,600 -600 Descending Potomac TRACON

Login

Don't have an account? Register now (free) for customized features, flight alerts, and more!